Commodore Clipper — C6QQ3 — position and weather

sailwx.info

Track history (hours):
 
Tides and Currents Weather Stations Pressure Air Temp Water Temp Dewpoint Dewpoint Depression Visibility Wind Speed Wind Dir Waves Ship Positions

Commodore Clipper

Operator: Condor Marine Services

Last reported at 2017-Jun-23 13:46 UTC. Time now 2017-Jun-23 17:23 UTC.
Position N 49°33' W 002°11'.

Length 130 m; draft 5.2 m.

Type: Ship. MMSI: 308094000.

Date/timePositionNaut miles runAvg speedWind from/ knotsBaromVisibWave heightAir tempDewpointWater temp
2017-Jun-23 13:46N 49°33' W 002°11'616.5
2017-Jun-23 13:23N 49°38' W 002°06'1318.2
2017-Jun-23 12:42N 49°50' W 001°59'518.4
2017-Jun-23 12:25N 49°55' W 001°55'4317.9
2017-Jun-23 10:00N 50°30' W 001°15'816.4
2017-Jun-23 09:30N 50°36' W 001°08'815.6
2017-Jun-23 09:00N 50°43' W 001°02'612.4
2017-Jun-23 08:31N 50°49' W 001°07'1 1.3
2017-Jun-23 08:00N 50°49' W 001°06'0 0.0
2017-Jun-23 07:30N 50°49' W 001°06'0 0.0
2017-Jun-23 07:01N 50°49' W 001°06'0 0.0
2017-Jun-23 06:30N 50°49' W 001°06'0 0.0
2017-Jun-23 06:00N 50°49' W 001°06'0 0.0
2017-Jun-23 05:30N 50°49' W 001°06'1 2.7
2017-Jun-23 05:00N 50°48' W 001°07'713.6
2017-Jun-23 04:31N 50°42' W 001°01'814.1
2017-Jun-23 03:56N 50°35' W 001°08'4413.0
2017-Jun-23 00:31N 49°59' W 001°47'014.3
2017-Jun-23 00:31N 49°59' W 001°47'714.3
2017-Jun-23 00:00N 49°53' W 001°53'713.9
2017-Jun-22 23:30N 49°47' W 001°60'611.7
2017-Jun-22 23:00N 49°42' W 002°04'713.5
2017-Jun-22 22:30N 49°36' W 002°08'1316.0
2017-Jun-22 21:41N 49°24' W 002°16'14 4.3
2017-Jun-22 18:22N 49°11' W 002°07'2212.7
2017-Jun-22 16:36N 49°27' W 002°30'1 0.5
2017-Jun-22 14:55N 49°27' W 002°32'1210.6
2017-Jun-22 13:47N 49°32' W 002°14'312.0
2017-Jun-22 13:30N 49°34' W 002°10'612.9
2017-Jun-22 13:00N 49°39' W 002°06'917.4
2017-Jun-22 12:30N 49°47' W 001°60'1018.9
2017-Jun-22 11:59N 49°55' W 001°51'918.7
2017-Jun-22 11:28N 50°03' W 001°43'1418.0
2017-Jun-22 10:43N 50°15' W 001°31'517.5
2017-Jun-22 10:27N 50°19' W 001°28'817.4
2017-Jun-22 10:00N 50°25' W 001°20'917.1
2017-Jun-22 09:30N 50°32' W 001°13'817.1
2017-Jun-22 09:00N 50°39' W 001°05'713.8
2017-Jun-22 08:31N 50°46' W 001°05'3 6.2
2017-Jun-22 08:00N 50°49' W 001°06'0 0.0
2017-Jun-22 07:30N 50°49' W 001°06'0 0.0
2017-Jun-22 07:00N 50°49' W 001°06'0 0.0
2017-Jun-22 06:30N 50°49' W 001°06'0 0.0
2017-Jun-22 06:00N 50°49' W 001°06'0 0.0
2017-Jun-22 05:30N 50°49' W 001°06'2 3.4
2017-Jun-22 05:00N 50°47' W 001°06'612.7
2017-Jun-22 04:31N 50°42' W 001°01'815.9
2017-Jun-22 04:00N 50°34' W 001°04'713.3
2017-Jun-22 03:30N 50°29' W 001°11'510.9
2017-Jun-22 03:00N 50°25' W 001°17'611.4
2017-Jun-22 02:30N 50°21' W 001°23'713.9
2017-Jun-22 02:00N 50°15' W 001°29'816.2
2017-Jun-22 01:30N 50°09' W 001°37'815.6
2017-Jun-22 01:00N 50°02' W 001°44'715.0
2017-Jun-22 00:30N 49°56' W 001°51'714.7
2017-Jun-22 00:00N 49°51' W 001°58'714.1
2017-Jun-21 23:31N 49°45' W 002°04'612.5
2017-Jun-21 23:00N 49°39' W 002°06'713.9
2017-Jun-21 22:30N 49°33' W 002°12'612.3
2017-Jun-21 22:01N 49°29' W 002°19'714.4
2017-Jun-21 21:31N 49°25' W 002°28'3 5.7
2017-Jun-21 20:59N 49°27' W 002°32'0 0.0
2017-Jun-21 20:30N 49°27' W 002°32'0 0.0
2017-Jun-21 20:00N 49°27' W 002°32'4 8.2
2017-Jun-21 19:30N 49°24' W 002°28'917.5
2017-Jun-21 19:01N 49°16' W 002°22'917.4
2017-Jun-21 18:30N 49°10' W 002°13'4 8.2
2017-Jun-21 18:00N 49°11' W 002°07'0 0.0
2017-Jun-21 17:29N 49°11' W 002°07'0 0.0
2017-Jun-21 16:59N 49°11' W 002°07'0 0.0
2017-Jun-21 16:05N 49°11' W 002°07'0 0.0
2017-Jun-21 15:53N 49°11' W 002°07'511.2
2017-Jun-21 15:24N 49°10' W 002°15'615.2
2017-Jun-21 15:00N 49°15' W 002°21'1013.1
2017-Jun-21 14:15N 49°24' W 002°16'912.4
2017-Jun-21 13:30N 49°33' W 002°10'713.2
2017-Jun-21 12:57N 49°39' W 002°05'814.6
2017-Jun-21 12:24N 49°46' W 001°59'817.1
2017-Jun-21 11:58N 49°52' W 001°53'919.3
2017-Jun-21 11:31N 49°59' W 001°44'1019.0
2017-Jun-21 10:58N 50°08' W 001°36'918.8
2017-Jun-21 10:28N 50°16' W 001°29'919.1
2017-Jun-21 10:00N 50°24' W 001°21'1019.2
2017-Jun-21 09:30N 50°31' W 001°12'1019.1
2017-Jun-21 09:00N 50°40' W 001°05'714.0
2017-Jun-21 08:30N 50°47' W 001°06'2 4.5
2017-Jun-21 08:00N 50°49' W 001°06'0 0.0
2017-Jun-21 07:31N 50°49' W 001°06'0 0.0
2017-Jun-21 07:00N 50°49' W 001°06'0 0.0
2017-Jun-21 06:30N 50°49' W 001°06'0 0.0
2017-Jun-21 06:00N 50°49' W 001°06'0 0.0
2017-Jun-21 05:30N 50°49' W 001°06'1 3.0
2017-Jun-21 05:01N 50°47' W 001°07'713.1
2017-Jun-21 04:31N 50°41' W 001°03'918.2
2017-Jun-21 04:00N 50°34' W 001°10'2212.3
2017-Jun-21 02:11N 50°16' W 001°31'1216.2
2017-Jun-21 01:28N 50°06' W 001°42'715.5
2017-Jun-21 01:01N 50°01' W 001°50'815.1
2017-Jun-21 00:30N 49°55' W 001°57'815.7
2017-Jun-21 00:00N 49°48' W 002°01'713.8
2017-Jun-20 23:31N 49°41' W 002°04'714.3
2017-Jun-20 23:01N 49°35' W 002°09'815.2
2017-Jun-20 22:30N 49°30' W 002°18'714.6
2017-Jun-20 22:01N 49°26' W 002°27'3 6.7
2017-Jun-20 21:30N 49°27' W 002°32'0 0.0
2017-Jun-20 21:00N 49°27' W 002°32'0 0.0
2017-Jun-20 20:30N 49°27' W 002°32'2 5.0
2017-Jun-20 20:01N 49°26' W 002°29'1517.9
2017-Jun-20 19:09N 49°12' W 002°19'617.2
2017-Jun-20 18:48N 49°10' W 002°10'2 0.8
2017-Jun-20 15:54N 49°11' W 002°07'511.1
2017-Jun-20 15:27N 49°10' W 002°15'613.8
2017-Jun-20 15:00N 49°14' W 002°21'611.9
2017-Jun-20 14:30N 49°20' W 002°18'1811.9
2017-Jun-20 13:02N 49°36' W 002°08'012.7
2017-Jun-20 13:00N 49°37' W 002°07'915.7
2017-Jun-20 12:25N 49°45' W 002°01'718.1
2017-Jun-20 12:01N 49°51' W 001°55'918.6
2017-Jun-20 11:30N 49°59' W 001°46'919.0
2017-Jun-20 11:01N 50°07' W 001°38'918.8
2017-Jun-20 10:31N 50°15' W 001°31'1018.9
2017-Jun-20 10:00N 50°23' W 001°22'918.9
2017-Jun-20 09:30N 50°30' W 001°14'1019.4
2017-Jun-20 09:01N 50°38' W 001°06'815.0
2017-Jun-20 08:31N 50°46' W 001°05'3 5.5
2017-Jun-20 08:00N 50°49' W 001°06'0 0.0
2017-Jun-20 07:31N 50°49' W 001°06'0 0.0
2017-Jun-20 07:00N 50°49' W 001°06'0 0.0
2017-Jun-20 06:30N 50°49' W 001°06'0 0.0
2017-Jun-20 06:00N 50°49' W 001°06'0 0.0
2017-Jun-20 05:30N 50°49' W 001°06'1 2.6
2017-Jun-20 05:00N 50°48' W 001°07'713.6
2017-Jun-20 04:31N 50°41' W 001°03'918.2
2017-Jun-20 04:01N 50°34' W 001°11'815.7
2017-Jun-20 03:30N 50°27' W 001°17'1712.3
2017-Jun-20 02:08N 50°13' W 001°32'612.2
2017-Jun-20 01:38N 50°09' W 001°38'111.9
2017-Jun-20 01:30N 50°07' W 001°40'612.7
2017-Jun-20 01:00N 50°02' W 001°46'912.3
2017-Jun-20 00:15N 49°55' W 001°53'413.5
2017-Jun-19 23:58N 49°51' W 001°56'816.0
2017-Jun-19 23:30N 49°45' W 002°02'815.1
2017-Jun-19 22:58N 49°37' W 002°07'1315.4
2017-Jun-19 22:07N 49°28' W 002°22'215.2
2017-Jun-19 22:00N 49°27' W 002°24'5 7.8
2017-Jun-19 21:21N 49°27' W 002°32'0 0.0
2017-Jun-19 21:01N 49°27' W 002°32'1 0.5
2017-Jun-19 19:46N 49°27' W 002°31'813.9
2017-Jun-19 19:10N 49°20' W 002°24'15 4.4
2017-Jun-19 15:48N 49°10' W 002°08'3811.3
2017-Jun-19 12:25N 49°48' W 001°58'716.8
2017-Jun-19 12:00N 49°53' W 001°52'917.6
2017-Jun-19 11:30N 50°00' W 001°44'918.2
2017-Jun-19 11:00N 50°08' W 001°36'918.3
2017-Jun-19 10:30N 50°16' W 001°29'1018.5
2017-Jun-19 09:57N 50°25' W 001°20'818.7
2017-Jun-19 09:30N 50°32' W 001°13'919.1
2017-Jun-19 09:01N 50°39' W 001°05'714.2
2017-Jun-19 08:30N 50°47' W 001°06'2 4.5
2017-Jun-19 08:00N 50°49' W 001°06'0 0.0
2017-Jun-19 07:30N 50°49' W 001°06'0 0.0
2017-Jun-19 07:00N 50°49' W 001°06'0 0.0
2017-Jun-19 06:31N 50°49' W 001°06'0 0.0
2017-Jun-19 06:00N 50°49' W 001°06'0 0.0
2017-Jun-19 05:30N 50°49' W 001°06'1 2.1
2017-Jun-19 05:00N 50°48' W 001°07'713.9
2017-Jun-19 04:30N 50°42' W 001°03'917.2
2017-Jun-19 03:59N 50°34' W 001°11'815.9
2017-Jun-19 03:30N 50°28' W 001°17'612.9
2017-Jun-19 03:00N 50°22' W 001°23'612.4
2017-Jun-19 02:30N 50°17' W 001°28'612.5
2017-Jun-19 02:00N 50°12' W 001°34'612.9
2017-Jun-19 01:30N 50°07' W 001°39'816.6
2017-Jun-19 01:00N 49°60' W 001°46'918.4
2017-Jun-19 00:30N 49°52' W 001°54'1618.8
2017-Jun-18 23:39N 49°37' W 002°05'417.7
2017-Jun-18 23:25N 49°34' W 002°08'1217.1
2017-Jun-18 22:45N 49°24' W 002°16'416.4
2017-Jun-18 22:30N 49°20' W 002°19'5 1.3
2017-Jun-18 18:34N 49°15' W 002°23'0 6.2
2017-Jun-18 18:30N 49°15' W 002°24'5 9.7
2017-Jun-18 17:58N 49°11' W 002°27'3 7.3
2017-Jun-18 17:30N 49°14' W 002°28'610.9
2017-Jun-18 16:58N 49°20' W 002°28'510.8
2017-Jun-18 16:30N 49°25' W 002°29'3 5.6
2017-Jun-18 16:00N 49°27' W 002°32'0 0.0
2017-Jun-18 15:30N 49°27' W 002°32'13 7.3
2017-Jun-18 13:42N 49°32' W 002°13'1513.6
2017-Jun-18 12:35N 49°46' W 002°01'114.1
2017-Jun-18 12:30N 49°46' W 001°60'815.4
2017-Jun-18 12:00N 49°53' W 001°53'816.5
2017-Jun-18 11:30N 49°59' W 001°45'917.3
2017-Jun-18 11:00N 50°07' W 001°39'917.9
2017-Jun-18 10:30N 50°14' W 001°30'1317.9
2017-Jun-18 09:46N 50°26' W 001°20'518.3
2017-Jun-18 09:29N 50°30' W 001°16'918.9
2017-Jun-18 09:00N 50°37' W 001°08'815.5
2017-Jun-18 08:31N 50°45' W 001°05'4 8.2
2017-Jun-18 08:01N 50°49' W 001°06'0 0.1
2017-Jun-18 07:30N 50°49' W 001°06'0 0.0
2017-Jun-18 07:00N 50°49' W 001°06'0 0.0
2017-Jun-18 06:30N 50°49' W 001°06'0 0.0
2017-Jun-18 06:00N 50°49' W 001°06'0 0.0
2017-Jun-18 05:30N 50°49' W 001°06'2 3.2
2017-Jun-18 05:01N 50°47' W 001°07'613.0
2017-Jun-18 04:31N 50°41' W 001°03'816.6
2017-Jun-18 04:00N 50°34' W 001°10'816.4
2017-Jun-18 03:30N 50°27' W 001°17'613.1
2017-Jun-18 03:00N 50°22' W 001°23'713.0
2017-Jun-18 02:27N 50°15' W 001°27'612.5
2017-Jun-18 02:00N 50°11' W 001°32'612.7
2017-Jun-18 01:30N 50°06' W 001°39'612.5
2017-Jun-18 01:00N 50°01' W 001°45'612.5
2017-Jun-18 00:30N 49°56' W 001°50'612.7
2017-Jun-18 00:01N 49°51' W 001°55'714.7
2017-Jun-17 23:30N 49°44' W 002°02'1119.0
2017-Jun-17 22:56N 49°35' W 002°09'917.5
2017-Jun-17 22:25N 49°26' W 002°14'716.8
2017-Jun-17 22:01N 49°20' W 002°18'815.1
2017-Jun-17 21:31N 49°12' W 002°20'813.1
2017-Jun-17 20:52N 49°10' W 002°07'1 0.4
2017-Jun-17 18:30N 49°10' W 002°08'3 6.1
2017-Jun-17 17:56N 49°10' W 002°14'614.9
2017-Jun-17 17:31N 49°13' W 002°22'714.7
2017-Jun-17 17:00N 49°20' W 002°26'714.4
2017-Jun-17 16:31N 49°27' W 002°30'1 2.9
2017-Jun-17 16:00N 49°27' W 002°32'0 0.0
2017-Jun-17 15:31N 49°27' W 002°32'0 0.1
2017-Jun-17 15:01N 49°27' W 002°32'9 9.2
2017-Jun-17 14:00N 49°30' W 002°18'815.3
2017-Jun-17 13:30N 49°35' W 002°09'714.6
2017-Jun-17 13:00N 49°42' W 002°04'713.4
2017-Jun-17 12:30N 49°47' W 001°59'714.8
2017-Jun-17 12:01N 49°54' W 001°53'815.7
2017-Jun-17 11:30N 50°00' W 001°47'816.2
2017-Jun-17 11:01N 50°07' W 001°40'816.9
2017-Jun-17 10:31N 50°14' W 001°32'917.4
2017-Jun-17 10:01N 50°21' W 001°25'917.6
2017-Jun-17 09:30N 50°29' W 001°17'917.9
2017-Jun-17 09:01N 50°36' W 001°09'816.5
2017-Jun-17 08:30N 50°43' W 001°03'611.8
2017-Jun-17 08:01N 50°49' W 001°06'0 0.8
2017-Jun-17 07:31N 50°49' W 001°06'0 0.0
2017-Jun-17 07:01N 50°49' W 001°06'0 0.0
2017-Jun-17 06:30N 50°49' W 001°06'0 0.0
2017-Jun-17 06:01N 50°49' W 001°06'0 0.0
2017-Jun-17 05:31N 50°49' W 001°06'1 2.5
2017-Jun-17 05:01N 50°48' W 001°07'714.0
2017-Jun-17 04:31N 50°41' W 001°03'815.6
2017-Jun-17 04:00N 50°35' W 001°10'816.1
2017-Jun-17 03:30N 50°28' W 001°17'613.0
2017-Jun-17 03:01N 50°23' W 001°23'713.1
2017-Jun-17 02:31N 50°18' W 001°29'612.6
2017-Jun-17 02:01N 50°12' W 001°33'713.9
2017-Jun-17 01:31N 50°07' W 001°40'713.8
2017-Jun-17 01:01N 50°01' W 001°46'612.9
2017-Jun-17 00:31N 49°55' W 001°51'713.9
2017-Jun-17 00:01N 49°50' W 001°57'2120.1
2017-Jun-16 22:58N 49°31' W 002°12'918.5
2017-Jun-16 22:29N 49°23' W 002°17'14 4.2
2017-Jun-16 19:12N 49°11' W 002°07'1 5.6
2017-Jun-16 19:00N 49°10' W 002°08'916.6
2017-Jun-16 18:28N 49°13' W 002°21'818.1
2017-Jun-16 18:00N 49°21' W 002°26'7 6.2
2017-Jun-16 16:50N 49°27' W 002°32'0 0.0
2017-Jun-16 16:29N 49°27' W 002°32'0 0.0
2017-Jun-16 16:00N 49°27' W 002°32'3 6.8
2017-Jun-16 15:30N 49°26' W 002°27'918.3
2017-Jun-16 15:00N 49°31' W 002°16'1616.2
2017-Jun-16 13:59N 49°45' W 002°02'714.9
2017-Jun-16 13:30N 49°51' W 001°55'715.0
2017-Jun-16 13:00N 49°56' W 001°48'715.0
2017-Jun-16 12:30N 50°03' W 001°42'715.0
2017-Jun-16 12:00N 50°09' W 001°35'815.4
2017-Jun-16 11:30N 50°15' W 001°29'815.4
2017-Jun-16 11:00N 50°21' W 001°22'915.4
2017-Jun-16 10:25N 50°29' W 001°13'615.4
2017-Jun-16 10:00N 50°34' W 001°07'815.9
2017-Jun-16 09:31N 50°41' W 001°00'714.6
2017-Jun-16 09:00N 50°47' W 001°06'2 3.7
2017-Jun-16 08:30N 50°49' W 001°06'0 0.3
2017-Jun-16 08:00N 50°49' W 001°06'0 0.0
2017-Jun-16 07:31N 50°49' W 001°06'0 0.0
2017-Jun-16 07:00N 50°49' W 001°06'0 0.0
2017-Jun-16 06:30N 50°49' W 001°06'0 0.0
2017-Jun-16 06:01N 50°49' W 001°06'0 0.0
2017-Jun-16 05:30N 50°49' W 001°06'2 3.2
2017-Jun-16 05:00N 50°47' W 001°07'713.8
2017-Jun-16 04:30N 50°41' W 001°03'815.4
2017-Jun-16 04:00N 50°35' W 001°10'1014.8
2017-Jun-16 03:21N 50°27' W 001°20'412.8
2017-Jun-16 03:00N 50°24' W 001°24'612.9
2017-Jun-16 02:30N 50°18' W 001°31'611.7
2017-Jun-16 02:01N 50°13' W 001°33'713.0
2017-Jun-16 01:31N 50°07' W 001°39'713.0
2017-Jun-16 01:00N 50°02' W 001°45'612.7
2017-Jun-16 00:30N 49°57' W 001°52'713.0
2017-Jun-16 00:00N 49°52' W 001°57'3714.6
2017-Jun-15 21:28N 49°18' W 002°20'6 1.6
2017-Jun-15 17:33N 49°12' W 002°19'1718.3
2017-Jun-15 16:37N 49°27' W 002°30'1 0.9
2017-Jun-15 15:18N 49°27' W 002°32'3 9.8
2017-Jun-15 15:00N 49°25' W 002°29'1717.2
2017-Jun-15 14:00N 49°36' W 002°08'1016.5
2017-Jun-15 13:24N 49°45' W 002°01'615.0
2017-Jun-15 13:01N 49°49' W 001°55'714.7
2017-Jun-15 12:31N 49°55' W 001°47'714.6
2017-Jun-15 12:00N 50°00' W 001°40'815.1
2017-Jun-15 11:31N 50°07' W 001°35'815.0
2017-Jun-15 11:00N 50°14' W 001°29'815.3
2017-Jun-15 10:30N 50°20' W 001°22'815.3
2017-Jun-15 10:01N 50°26' W 001°15'815.1
2017-Jun-15 09:30N 50°32' W 001°08'815.2
2017-Jun-15 09:00N 50°39' W 001°02'714.6
2017-Jun-15 08:30N 50°46' W 001°05'3 6.4
2017-Jun-15 08:01N 50°49' W 001°06'0 0.0
2017-Jun-15 07:31N 50°49' W 001°06'0 0.0
2017-Jun-15 07:00N 50°49' W 001°06'0 0.0
2017-Jun-15 06:31N 50°49' W 001°06'0 0.0
2017-Jun-15 06:00N 50°49' W 001°06'0 0.0
2017-Jun-15 05:30N 50°49' W 001°06'2 3.2
2017-Jun-15 05:01N 50°47' W 001°06'713.7
2017-Jun-15 04:31N 50°41' W 001°03'715.0
2017-Jun-15 04:01N 50°35' W 001°10'713.9
2017-Jun-15 03:30N 50°29' W 001°17'611.9
2017-Jun-15 03:00N 50°24' W 001°22'612.2
2017-Jun-15 02:31N 50°19' W 001°28'612.0
2017-Jun-15 02:01N 50°14' W 001°33'612.6
2017-Jun-15 01:30N 50°09' W 001°38'713.7
2017-Jun-15 01:00N 50°03' W 001°44'714.1
2017-Jun-15 00:31N 49°57' W 001°49'714.9
2017-Jun-15 00:01N 49°51' W 001°56'816.1
2017-Jun-14 23:30N 49°45' W 002°04'816.1
2017-Jun-14 23:01N 49°37' W 002°07'1316.9
2017-Jun-14 22:16N 49°26' W 002°15'519.4
2017-Jun-14 22:01N 49°21' W 002°18'1016.9
2017-Jun-14 21:25N 49°11' W 002°18'716.3
2017-Jun-14 20:58N 49°10' W 002°07'1 0.3
2017-Jun-14 18:21N 49°11' W 002°07'611.2
2017-Jun-14 17:50N 49°10' W 002°16'716.4
2017-Jun-14 17:24N 49°16' W 002°23'716.0
2017-Jun-14 16:59N 49°22' W 002°27'4 1.8
2017-Jun-14 14:51N 49°25' W 002°29'1718.5
2017-Jun-14 13:55N 49°36' W 002°08'1118.4
2017-Jun-14 13:20N 49°46' W 002°00'516.6
2017-Jun-14 13:00N 49°50' W 001°56'816.6
2017-Jun-14 12:30N 49°57' W 001°48'816.0
2017-Jun-14 12:01N 50°03' W 001°41'815.8
2017-Jun-14 11:31N 50°10' W 001°34'815.7
2017-Jun-14 11:01N 50°16' W 001°27'815.7
2017-Jun-14 10:31N 50°22' W 001°19'815.7
2017-Jun-14 10:01N 50°29' W 001°12'815.4
2017-Jun-14 09:30N 50°36' W 001°06'714.9
2017-Jun-14 09:01N 50°42' W 001°01'612.2
2017-Jun-14 08:30N 50°47' W 001°07'2 3.1
2017-Jun-14 08:00N 50°49' W 001°06'0 0.0
2017-Jun-14 07:30N 50°49' W 001°06'0 0.0
2017-Jun-14 07:00N 50°49' W 001°06'0 0.0
2017-Jun-14 06:31N 50°49' W 001°06'0 0.0
2017-Jun-14 06:00N 50°49' W 001°06'0 0.0
2017-Jun-14 05:30N 50°49' W 001°06'2 3.1
2017-Jun-14 05:00N 50°47' W 001°07'713.5
2017-Jun-14 04:31N 50°41' W 001°03'714.7
2017-Jun-14 04:01N 50°35' W 001°09'713.7
2017-Jun-14 03:31N 50°29' W 001°15'510.7
2017-Jun-14 03:01N 50°25' W 001°20'510.8
2017-Jun-14 02:31N 50°21' W 001°25'611.6
2017-Jun-14 02:01N 50°15' W 001°29'611.8
2017-Jun-14 01:31N 50°10' W 001°34'612.7
2017-Jun-14 01:01N 50°06' W 001°41'713.2
2017-Jun-14 00:31N 50°00' W 001°47'713.8
2017-Jun-14 00:01N 49°55' W 001°53'714.4
2017-Jun-13 23:31N 49°49' W 001°60'815.4
2017-Jun-13 23:00N 49°42' W 002°05'815.1
2017-Jun-13 22:31N 49°35' W 002°09'714.8
2017-Jun-13 22:00N 49°28' W 002°13'714.9
2017-Jun-13 21:31N 49°21' W 002°18'1015.4
2017-Jun-13 20:53N 49°12' W 002°19'616.7
2017-Jun-13 20:30N 49°10' W 002°10'2 0.9
2017-Jun-13 18:10N 49°11' W 002°07'512.4
2017-Jun-13 17:44N 49°10' W 002°15'1017.7
2017-Jun-13 17:11N 49°18' W 002°24'318.0
2017-Jun-13 17:00N 49°21' W 002°26'8 4.4
2017-Jun-13 15:17N 49°27' W 002°32'1 2.2
2017-Jun-13 15:00N 49°27' W 002°31'1716.0
2017-Jun-13 13:58N 49°35' W 002°08'  
Track history (hours):
 
Tides and Currents Weather Stations Pressure Air Temp Water Temp Dewpoint Dewpoint Depression Visibility Wind Speed Wind Dir Waves Ship Positions

Commodore Clipper

Operator: Condor Marine Services

Last reported at 2017-Jun-23 13:46 UTC. Time now 2017-Jun-23 17:23 UTC.
Position N 49°33' W 002°11'.

Length 130 m; draft 5.2 m.

Type: Ship. MMSI: 308094000.

Date/timePositionNaut miles runAvg speedWind from/ knotsBaromVisibWave heightAir tempDewpointWater temp
2017-Jun-23 13:46N 49°33' W 002°11'616.5
2017-Jun-23 13:23N 49°38' W 002°06'1318.2
2017-Jun-23 12:42N 49°50' W 001°59'518.4
2017-Jun-23 12:25N 49°55' W 001°55'4317.9
2017-Jun-23 10:00N 50°30' W 001°15'816.4
2017-Jun-23 09:30N 50°36' W 001°08'815.6
2017-Jun-23 09:00N 50°43' W 001°02'612.4
2017-Jun-23 08:31N 50°49' W 001°07'1 1.3
2017-Jun-23 08:00N 50°49' W 001°06'0 0.0
2017-Jun-23 07:30N 50°49' W 001°06'0 0.0
2017-Jun-23 07:01N 50°49' W 001°06'0 0.0
2017-Jun-23 06:30N 50°49' W 001°06'0 0.0
2017-Jun-23 06:00N 50°49' W 001°06'0 0.0
2017-Jun-23 05:30N 50°49' W 001°06'1 2.7
2017-Jun-23 05:00N 50°48' W 001°07'713.6
2017-Jun-23 04:31N 50°42' W 001°01'814.1
2017-Jun-23 03:56N 50°35' W 001°08'4413.0
2017-Jun-23 00:31N 49°59' W 001°47'014.3
2017-Jun-23 00:31N 49°59' W 001°47'714.3
2017-Jun-23 00:00N 49°53' W 001°53'713.9
2017-Jun-22 23:30N 49°47' W 001°60'611.7
2017-Jun-22 23:00N 49°42' W 002°04'713.5
2017-Jun-22 22:30N 49°36' W 002°08'1316.0
2017-Jun-22 21:41N 49°24' W 002°16'14 4.3
2017-Jun-22 18:22N 49°11' W 002°07'2212.7
2017-Jun-22 16:36N 49°27' W 002°30'1 0.5
2017-Jun-22 14:55N 49°27' W 002°32'1210.6
2017-Jun-22 13:47N 49°32' W 002°14'312.0
2017-Jun-22 13:30N 49°34' W 002°10'612.9
2017-Jun-22 13:00N 49°39' W 002°06'917.4
2017-Jun-22 12:30N 49°47' W 001°60'1018.9
2017-Jun-22 11:59N 49°55' W 001°51'918.7
2017-Jun-22 11:28N 50°03' W 001°43'1418.0
2017-Jun-22 10:43N 50°15' W 001°31'517.5
2017-Jun-22 10:27N 50°19' W 001°28'817.4
2017-Jun-22 10:00N 50°25' W 001°20'917.1
2017-Jun-22 09:30N 50°32' W 001°13'817.1
2017-Jun-22 09:00N 50°39' W 001°05'713.8
2017-Jun-22 08:31N 50°46' W 001°05'3 6.2
2017-Jun-22 08:00N 50°49' W 001°06'0 0.0
2017-Jun-22 07:30N 50°49' W 001°06'0 0.0
2017-Jun-22 07:00N 50°49' W 001°06'0 0.0
2017-Jun-22 06:30N 50°49' W 001°06'0 0.0
2017-Jun-22 06:00N 50°49' W 001°06'0 0.0
2017-Jun-22 05:30N 50°49' W 001°06'2 3.4
2017-Jun-22 05:00N 50°47' W 001°06'612.7
2017-Jun-22 04:31N 50°42' W 001°01'815.9
2017-Jun-22 04:00N 50°34' W 001°04'713.3
2017-Jun-22 03:30N 50°29' W 001°11'510.9
2017-Jun-22 03:00N 50°25' W 001°17'611.4
2017-Jun-22 02:30N 50°21' W 001°23'713.9
2017-Jun-22 02:00N 50°15' W 001°29'816.2
2017-Jun-22 01:30N 50°09' W 001°37'815.6
2017-Jun-22 01:00N 50°02' W 001°44'715.0
2017-Jun-22 00:30N 49°56' W 001°51'714.7
2017-Jun-22 00:00N 49°51' W 001°58'714.1
2017-Jun-21 23:31N 49°45' W 002°04'612.5
2017-Jun-21 23:00N 49°39' W 002°06'713.9
2017-Jun-21 22:30N 49°33' W 002°12'612.3
2017-Jun-21 22:01N 49°29' W 002°19'714.4
2017-Jun-21 21:31N 49°25' W 002°28'3 5.7
2017-Jun-21 20:59N 49°27' W 002°32'0 0.0
2017-Jun-21 20:30N 49°27' W 002°32'0 0.0
2017-Jun-21 20:00N 49°27' W 002°32'4 8.2
2017-Jun-21 19:30N 49°24' W 002°28'917.5
2017-Jun-21 19:01N 49°16' W 002°22'917.4
2017-Jun-21 18:30N 49°10' W 002°13'4 8.2
2017-Jun-21 18:00N 49°11' W 002°07'0 0.0
2017-Jun-21 17:29N 49°11' W 002°07'0 0.0
2017-Jun-21 16:59N 49°11' W 002°07'0 0.0
2017-Jun-21 16:05N 49°11' W 002°07'0 0.0
2017-Jun-21 15:53N 49°11' W 002°07'511.2
2017-Jun-21 15:24N 49°10' W 002°15'615.2
2017-Jun-21 15:00N 49°15' W 002°21'1013.1
2017-Jun-21 14:15N 49°24' W 002°16'912.4
2017-Jun-21 13:30N 49°33' W 002°10'713.2
2017-Jun-21 12:57N 49°39' W 002°05'814.6
2017-Jun-21 12:24N 49°46' W 001°59'817.1
2017-Jun-21 11:58N 49°52' W 001°53'919.3
2017-Jun-21 11:31N 49°59' W 001°44'1019.0
2017-Jun-21 10:58N 50°08' W 001°36'918.8
2017-Jun-21 10:28N 50°16' W 001°29'919.1
2017-Jun-21 10:00N 50°24' W 001°21'1019.2
2017-Jun-21 09:30N 50°31' W 001°12'1019.1
2017-Jun-21 09:00N 50°40' W 001°05'714.0
2017-Jun-21 08:30N 50°47' W 001°06'2 4.5
2017-Jun-21 08:00N 50°49' W 001°06'0 0.0
2017-Jun-21 07:31N 50°49' W 001°06'0 0.0
2017-Jun-21 07:00N 50°49' W 001°06'0 0.0
2017-Jun-21 06:30N 50°49' W 001°06'0 0.0
2017-Jun-21 06:00N 50°49' W 001°06'0 0.0
2017-Jun-21 05:30N 50°49' W 001°06'1 3.0
2017-Jun-21 05:01N 50°47' W 001°07'713.1
2017-Jun-21 04:31N 50°41' W 001°03'918.2
2017-Jun-21 04:00N 50°34' W 001°10'2212.3
2017-Jun-21 02:11N 50°16' W 001°31'1216.2
2017-Jun-21 01:28N 50°06' W 001°42'715.5
2017-Jun-21 01:01N 50°01' W 001°50'815.1
2017-Jun-21 00:30N 49°55' W 001°57'815.7
2017-Jun-21 00:00N 49°48' W 002°01'713.8
2017-Jun-20 23:31N 49°41' W 002°04'714.3
2017-Jun-20 23:01N 49°35' W 002°09'815.2
2017-Jun-20 22:30N 49°30' W 002°18'714.6
2017-Jun-20 22:01N 49°26' W 002°27'3 6.7
2017-Jun-20 21:30N 49°27' W 002°32'0 0.0
2017-Jun-20 21:00N 49°27' W 002°32'0 0.0
2017-Jun-20 20:30N 49°27' W 002°32'2 5.0
2017-Jun-20 20:01N 49°26' W 002°29'1517.9
2017-Jun-20 19:09N 49°12' W 002°19'617.2
2017-Jun-20 18:48N 49°10' W 002°10'2 0.8
2017-Jun-20 15:54N 49°11' W 002°07'511.1
2017-Jun-20 15:27N 49°10' W 002°15'613.8
2017-Jun-20 15:00N 49°14' W 002°21'611.9
2017-Jun-20 14:30N 49°20' W 002°18'1811.9
2017-Jun-20 13:02N 49°36' W 002°08'012.7
2017-Jun-20 13:00N 49°37' W 002°07'915.7
2017-Jun-20 12:25N 49°45' W 002°01'718.1
2017-Jun-20 12:01N 49°51' W 001°55'918.6
2017-Jun-20 11:30N 49°59' W 001°46'919.0
2017-Jun-20 11:01N 50°07' W 001°38'918.8
2017-Jun-20 10:31N 50°15' W 001°31'1018.9
2017-Jun-20 10:00N 50°23' W 001°22'918.9
2017-Jun-20 09:30N 50°30' W 001°14'1019.4
2017-Jun-20 09:01N 50°38' W 001°06'815.0
2017-Jun-20 08:31N 50°46' W 001°05'3 5.5
2017-Jun-20 08:00N 50°49' W 001°06'0 0.0
2017-Jun-20 07:31N 50°49' W 001°06'0 0.0
2017-Jun-20 07:00N 50°49' W 001°06'0 0.0
2017-Jun-20 06:30N 50°49' W 001°06'0 0.0
2017-Jun-20 06:00N 50°49' W 001°06'0 0.0
2017-Jun-20 05:30N 50°49' W 001°06'1 2.6
2017-Jun-20 05:00N 50°48' W 001°07'713.6
2017-Jun-20 04:31N 50°41' W 001°03'918.2
2017-Jun-20 04:01N 50°34' W 001°11'815.7
2017-Jun-20 03:30N 50°27' W 001°17'1712.3
2017-Jun-20 02:08N 50°13' W 001°32'612.2
2017-Jun-20 01:38N 50°09' W 001°38'111.9
2017-Jun-20 01:30N 50°07' W 001°40'612.7
2017-Jun-20 01:00N 50°02' W 001°46'912.3
2017-Jun-20 00:15N 49°55' W 001°53'413.5
2017-Jun-19 23:58N 49°51' W 001°56'816.0
2017-Jun-19 23:30N 49°45' W 002°02'815.1
2017-Jun-19 22:58N 49°37' W 002°07'1315.4
2017-Jun-19 22:07N 49°28' W 002°22'215.2
2017-Jun-19 22:00N 49°27' W 002°24'5 7.8
2017-Jun-19 21:21N 49°27' W 002°32'0 0.0
2017-Jun-19 21:01N 49°27' W 002°32'1 0.5
2017-Jun-19 19:46N 49°27' W 002°31'813.9
2017-Jun-19 19:10N 49°20' W 002°24'15 4.4
2017-Jun-19 15:48N 49°10' W 002°08'3811.3
2017-Jun-19 12:25N 49°48' W 001°58'716.8
2017-Jun-19 12:00N 49°53' W 001°52'917.6
2017-Jun-19 11:30N 50°00' W 001°44'918.2
2017-Jun-19 11:00N 50°08' W 001°36'918.3
2017-Jun-19 10:30N 50°16' W 001°29'1018.5
2017-Jun-19 09:57N 50°25' W 001°20'818.7
2017-Jun-19 09:30N 50°32' W 001°13'919.1
2017-Jun-19 09:01N 50°39' W 001°05'714.2
2017-Jun-19 08:30N 50°47' W 001°06'2 4.5
2017-Jun-19 08:00N 50°49' W 001°06'0 0.0
2017-Jun-19 07:30N 50°49' W 001°06'0 0.0
2017-Jun-19 07:00N 50°49' W 001°06'0 0.0
2017-Jun-19 06:31N 50°49' W 001°06'0 0.0
2017-Jun-19 06:00N 50°49' W 001°06'0 0.0
2017-Jun-19 05:30N 50°49' W 001°06'1 2.1
2017-Jun-19 05:00N 50°48' W 001°07'713.9
2017-Jun-19 04:30N 50°42' W 001°03'917.2
2017-Jun-19 03:59N 50°34' W 001°11'815.9
2017-Jun-19 03:30N 50°28' W 001°17'612.9
2017-Jun-19 03:00N 50°22' W 001°23'612.4
2017-Jun-19 02:30N 50°17' W 001°28'612.5
2017-Jun-19 02:00N 50°12' W 001°34'612.9
2017-Jun-19 01:30N 50°07' W 001°39'816.6
2017-Jun-19 01:00N 49°60' W 001°46'918.4
2017-Jun-19 00:30N 49°52' W 001°54'1618.8
2017-Jun-18 23:39N 49°37' W 002°05'417.7
2017-Jun-18 23:25N 49°34' W 002°08'1217.1
2017-Jun-18 22:45N 49°24' W 002°16'416.4
2017-Jun-18 22:30N 49°20' W 002°19'5 1.3
2017-Jun-18 18:34N 49°15' W 002°23'0 6.2
2017-Jun-18 18:30N 49°15' W 002°24'5 9.7
2017-Jun-18 17:58N 49°11' W 002°27'3 7.3
2017-Jun-18 17:30N 49°14' W 002°28'610.9
2017-Jun-18 16:58N 49°20' W 002°28'510.8
2017-Jun-18 16:30N 49°25' W 002°29'3 5.6
2017-Jun-18 16:00N 49°27' W 002°32'0 0.0
2017-Jun-18 15:30N 49°27' W 002°32'13 7.3
2017-Jun-18 13:42N 49°32' W 002°13'1513.6
2017-Jun-18 12:35N 49°46' W 002°01'114.1
2017-Jun-18 12:30N 49°46' W 001°60'815.4
2017-Jun-18 12:00N 49°53' W 001°53'816.5
2017-Jun-18 11:30N 49°59' W 001°45'917.3
2017-Jun-18 11:00N 50°07' W 001°39'917.9
2017-Jun-18 10:30N 50°14' W 001°30'1317.9
2017-Jun-18 09:46N 50°26' W 001°20'518.3
2017-Jun-18 09:29N 50°30' W 001°16'918.9
2017-Jun-18 09:00N 50°37' W 001°08'815.5
2017-Jun-18 08:31N 50°45' W 001°05'4 8.2
2017-Jun-18 08:01N 50°49' W 001°06'0 0.1
2017-Jun-18 07:30N 50°49' W 001°06'0 0.0
2017-Jun-18 07:00N 50°49' W 001°06'0 0.0
2017-Jun-18 06:30N 50°49' W 001°06'0 0.0
2017-Jun-18 06:00N 50°49' W 001°06'0 0.0
2017-Jun-18 05:30N 50°49' W 001°06'2 3.2
2017-Jun-18 05:01N 50°47' W 001°07'613.0
2017-Jun-18 04:31N 50°41' W 001°03'816.6
2017-Jun-18 04:00N 50°34' W 001°10'816.4
2017-Jun-18 03:30N 50°27' W 001°17'613.1
2017-Jun-18 03:00N 50°22' W 001°23'713.0
2017-Jun-18 02:27N 50°15' W 001°27'612.5
2017-Jun-18 02:00N 50°11' W 001°32'612.7
2017-Jun-18 01:30N 50°06' W 001°39'612.5
2017-Jun-18 01:00N 50°01' W 001°45'612.5
2017-Jun-18 00:30N 49°56' W 001°50'612.7
2017-Jun-18 00:01N 49°51' W 001°55'714.7
2017-Jun-17 23:30N 49°44' W 002°02'1119.0
2017-Jun-17 22:56N 49°35' W 002°09'917.5
2017-Jun-17 22:25N 49°26' W 002°14'716.8
2017-Jun-17 22:01N 49°20' W 002°18'815.1
2017-Jun-17 21:31N 49°12' W 002°20'813.1
2017-Jun-17 20:52N 49°10' W 002°07'1 0.4
2017-Jun-17 18:30N 49°10' W 002°08'3 6.1
2017-Jun-17 17:56N 49°10' W 002°14'614.9
2017-Jun-17 17:31N 49°13' W 002°22'714.7
2017-Jun-17 17:00N 49°20' W 002°26'714.4
2017-Jun-17 16:31N 49°27' W 002°30'1 2.9
2017-Jun-17 16:00N 49°27' W 002°32'0 0.0
2017-Jun-17 15:31N 49°27' W 002°32'0 0.1
2017-Jun-17 15:01N 49°27' W 002°32'9 9.2
2017-Jun-17 14:00N 49°30' W 002°18'815.3
2017-Jun-17 13:30N 49°35' W 002°09'714.6
2017-Jun-17 13:00N 49°42' W 002°04'713.4
2017-Jun-17 12:30N 49°47' W 001°59'714.8
2017-Jun-17 12:01N 49°54' W 001°53'815.7
2017-Jun-17 11:30N 50°00' W 001°47'816.2
2017-Jun-17 11:01N 50°07' W 001°40'816.9
2017-Jun-17 10:31N 50°14' W 001°32'917.4
2017-Jun-17 10:01N 50°21' W 001°25'917.6
2017-Jun-17 09:30N 50°29' W 001°17'917.9
2017-Jun-17 09:01N 50°36' W 001°09'816.5
2017-Jun-17 08:30N 50°43' W 001°03'611.8
2017-Jun-17 08:01N 50°49' W 001°06'0 0.8
2017-Jun-17 07:31N 50°49' W 001°06'0 0.0
2017-Jun-17 07:01N 50°49' W 001°06'0 0.0
2017-Jun-17 06:30N 50°49' W 001°06'0 0.0
2017-Jun-17 06:01N 50°49' W 001°06'0 0.0
2017-Jun-17 05:31N 50°49' W 001°06'1 2.5
2017-Jun-17 05:01N 50°48' W 001°07'714.0
2017-Jun-17 04:31N 50°41' W 001°03'815.6
2017-Jun-17 04:00N 50°35' W 001°10'816.1
2017-Jun-17 03:30N 50°28' W 001°17'613.0
2017-Jun-17 03:01N 50°23' W 001°23'713.1
2017-Jun-17 02:31N 50°18' W 001°29'612.6
2017-Jun-17 02:01N 50°12' W 001°33'713.9
2017-Jun-17 01:31N 50°07' W 001°40'713.8
2017-Jun-17 01:01N 50°01' W 001°46'612.9
2017-Jun-17 00:31N 49°55' W 001°51'713.9
2017-Jun-17 00:01N 49°50' W 001°57'2120.1
2017-Jun-16 22:58N 49°31' W 002°12'918.5
2017-Jun-16 22:29N 49°23' W 002°17'14 4.2
2017-Jun-16 19:12N 49°11' W 002°07'1 5.6
2017-Jun-16 19:00N 49°10' W 002°08'916.6
2017-Jun-16 18:28N 49°13' W 002°21'818.1
2017-Jun-16 18:00N 49°21' W 002°26'7 6.2
2017-Jun-16 16:50N 49°27' W 002°32'0 0.0
2017-Jun-16 16:29N 49°27' W 002°32'0 0.0
2017-Jun-16 16:00N 49°27' W 002°32'3 6.8
2017-Jun-16 15:30N 49°26' W 002°27'918.3
2017-Jun-16 15:00N 49°31' W 002°16'1616.2
2017-Jun-16 13:59N 49°45' W 002°02'714.9
2017-Jun-16 13:30N 49°51' W 001°55'715.0
2017-Jun-16 13:00N 49°56' W 001°48'715.0
2017-Jun-16 12:30N 50°03' W 001°42'715.0
2017-Jun-16 12:00N 50°09' W 001°35'815.4
2017-Jun-16 11:30N 50°15' W 001°29'815.4
2017-Jun-16 11:00N 50°21' W 001°22'915.4
2017-Jun-16 10:25N 50°29' W 001°13'615.4
2017-Jun-16 10:00N 50°34' W 001°07'815.9
2017-Jun-16 09:31N 50°41' W 001°00'714.6
2017-Jun-16 09:00N 50°47' W 001°06'2 3.7
2017-Jun-16 08:30N 50°49' W 001°06'0 0.3
2017-Jun-16 08:00N 50°49' W 001°06'0 0.0
2017-Jun-16 07:31N 50°49' W 001°06'0 0.0
2017-Jun-16 07:00N 50°49' W 001°06'0 0.0
2017-Jun-16 06:30N 50°49' W 001°06'0 0.0
2017-Jun-16 06:01N 50°49' W 001°06'0 0.0
2017-Jun-16 05:30N 50°49' W 001°06'2 3.2
2017-Jun-16 05:00N 50°47' W 001°07'713.8
2017-Jun-16 04:30N 50°41' W 001°03'815.4
2017-Jun-16 04:00N 50°35' W 001°10'1014.8
2017-Jun-16 03:21N 50°27' W 001°20'412.8
2017-Jun-16 03:00N 50°24' W 001°24'612.9
2017-Jun-16 02:30N 50°18' W 001°31'611.7
2017-Jun-16 02:01N 50°13' W 001°33'713.0
2017-Jun-16 01:31N 50°07' W 001°39'713.0
2017-Jun-16 01:00N 50°02' W 001°45'612.7
2017-Jun-16 00:30N 49°57' W 001°52'713.0
2017-Jun-16 00:00N 49°52' W 001°57'3714.6
2017-Jun-15 21:28N 49°18' W 002°20'6 1.6
2017-Jun-15 17:33N 49°12' W 002°19'1718.3
2017-Jun-15 16:37N 49°27' W 002°30'1 0.9
2017-Jun-15 15:18N 49°27' W 002°32'3 9.8
2017-Jun-15 15:00N 49°25' W 002°29'1717.2
2017-Jun-15 14:00N 49°36' W 002°08'1016.5
2017-Jun-15 13:24N 49°45' W 002°01'615.0
2017-Jun-15 13:01N 49°49' W 001°55'714.7
2017-Jun-15 12:31N 49°55' W 001°47'714.6
2017-Jun-15 12:00N 50°00' W 001°40'815.1
2017-Jun-15 11:31N 50°07' W 001°35'815.0
2017-Jun-15 11:00N 50°14' W 001°29'815.3
2017-Jun-15 10:30N 50°20' W 001°22'815.3
2017-Jun-15 10:01N 50°26' W 001°15'815.1
2017-Jun-15 09:30N 50°32' W 001°08'815.2
2017-Jun-15 09:00N 50°39' W 001°02'714.6
2017-Jun-15 08:30N 50°46' W 001°05'3 6.4
2017-Jun-15 08:01N 50°49' W 001°06'0 0.0
2017-Jun-15 07:31N 50°49' W 001°06'0 0.0
2017-Jun-15 07:00N 50°49' W 001°06'0 0.0
2017-Jun-15 06:31N 50°49' W 001°06'0 0.0
2017-Jun-15 06:00N 50°49' W 001°06'0 0.0
2017-Jun-15 05:30N 50°49' W 001°06'2 3.2
2017-Jun-15 05:01N 50°47' W 001°06'713.7
2017-Jun-15 04:31N 50°41' W 001°03'715.0
2017-Jun-15 04:01N 50°35' W 001°10'713.9
2017-Jun-15 03:30N 50°29' W 001°17'611.9
2017-Jun-15 03:00N 50°24' W 001°22'612.2
2017-Jun-15 02:31N 50°19' W 001°28'612.0
2017-Jun-15 02:01N 50°14' W 001°33'612.6
2017-Jun-15 01:30N 50°09' W 001°38'713.7
2017-Jun-15 01:00N 50°03' W 001°44'714.1
2017-Jun-15 00:31N 49°57' W 001°49'714.9
2017-Jun-15 00:01N 49°51' W 001°56'816.1
2017-Jun-14 23:30N 49°45' W 002°04'816.1
2017-Jun-14 23:01N 49°37' W 002°07'1316.9
2017-Jun-14 22:16N 49°26' W 002°15'519.4
2017-Jun-14 22:01N 49°21' W 002°18'1016.9
2017-Jun-14 21:25N 49°11' W 002°18'716.3
2017-Jun-14 20:58N 49°10' W 002°07'1 0.3
2017-Jun-14 18:21N 49°11' W 002°07'611.2
2017-Jun-14 17:50N 49°10' W 002°16'716.4
2017-Jun-14 17:24N 49°16' W 002°23'716.0
2017-Jun-14 16:59N 49°22' W 002°27'4 1.8
2017-Jun-14 14:51N 49°25' W 002°29'1718.5
2017-Jun-14 13:55N 49°36' W 002°08'1118.4
2017-Jun-14 13:20N 49°46' W 002°00'516.6
2017-Jun-14 13:00N 49°50' W 001°56'816.6
2017-Jun-14 12:30N 49°57' W 001°48'816.0
2017-Jun-14 12:01N 50°03' W 001°41'815.8
2017-Jun-14 11:31N 50°10' W 001°34'815.7
2017-Jun-14 11:01N 50°16' W 001°27'815.7
2017-Jun-14 10:31N 50°22' W 001°19'815.7
2017-Jun-14 10:01N 50°29' W 001°12'815.4
2017-Jun-14 09:30N 50°36' W 001°06'714.9
2017-Jun-14 09:01N 50°42' W 001°01'612.2
2017-Jun-14 08:30N 50°47' W 001°07'2 3.1
2017-Jun-14 08:00N 50°49' W 001°06'0 0.0
2017-Jun-14 07:30N 50°49' W 001°06'0 0.0
2017-Jun-14 07:00N 50°49' W 001°06'0 0.0
2017-Jun-14 06:31N 50°49' W 001°06'0 0.0
2017-Jun-14 06:00N 50°49' W 001°06'0 0.0
2017-Jun-14 05:30N 50°49' W 001°06'2 3.1
2017-Jun-14 05:00N 50°47' W 001°07'713.5
2017-Jun-14 04:31N 50°41' W 001°03'714.7
2017-Jun-14 04:01N 50°35' W 001°09'713.7
2017-Jun-14 03:31N 50°29' W 001°15'510.7
2017-Jun-14 03:01N 50°25' W 001°20'510.8
2017-Jun-14 02:31N 50°21' W 001°25'611.6
2017-Jun-14 02:01N 50°15' W 001°29'611.8
2017-Jun-14 01:31N 50°10' W 001°34'612.7
2017-Jun-14 01:01N 50°06' W 001°41'713.2
2017-Jun-14 00:31N 50°00' W 001°47'713.8
2017-Jun-14 00:01N 49°55' W 001°53'714.4
2017-Jun-13 23:31N 49°49' W 001°60'815.4
2017-Jun-13 23:00N 49°42' W 002°05'815.1
2017-Jun-13 22:31N 49°35' W 002°09'714.8
2017-Jun-13 22:00N 49°28' W 002°13'714.9
2017-Jun-13 21:31N 49°21' W 002°18'1015.4
2017-Jun-13 20:53N 49°12' W 002°19'616.7
2017-Jun-13 20:30N 49°10' W 002°10'2 0.9
2017-Jun-13 18:10N 49°11' W 002°07'512.4
2017-Jun-13 17:44N 49°10' W 002°15'1017.7
2017-Jun-13 17:11N 49°18' W 002°24'318.0
2017-Jun-13 17:00N 49°21' W 002°26'8 4.4
2017-Jun-13 15:17N 49°27' W 002°32'1 2.2
2017-Jun-13 15:00N 49°27' W 002°31'1716.0
2017-Jun-13 13:58N 49°35' W 002°08'  

Dump ship's entire track history